Data for 01/05/2009

Time Sea-Level Adjusted Pressure Absolute Pressure Temperature Relative Humidity Dew Point   
(mb) (inHg) (mb) (inHg) (C) (F) (%) (C) (F)
00:05 1011 29.85 840 24.81 -11.5 11.3 48 -20.5 -4.9
00:10 1011 29.85 840 24.81 -11.7 10.9 47 -20.9 -5.5
00:15 1011 29.85 840 24.81 -11.5 11.3 46 -20.9 -5.7
00:20 1011 29.85 840 24.81 -11.4 11.5 46 -20.9 -5.5
00:25 1011 29.85 840 24.81 -11.3 11.8 44 -21.1 -6
00:30 1011 29.85 840 24.81 -11 12.2 44 -21 -5.8
00:35 1011 29.85 840 24.81 -11 12.1 43 -21.4 -6.6
00:40 1010 29.83 840 24.81 -10.7 12.8 42 -21.2 -6.2
00:45 1010 29.83 840 24.81 -10.8 12.5 44 -20.9 -5.6
00:50 1010 29.83 839 24.78 -11.2 11.9 46 -20.7 -5.2
00:55 1010 29.83 839 24.78 -11.2 11.8 46 -20.7 -5.3
01:00 1010 29.83 839 24.78 -11 12.2 44 -21 -5.8
01:05 1010 29.83 839 24.78 -10.4 13.2 42 -21.1 -5.9
01:10 1010 29.83 839 24.78 -10.4 13.3 43 -20.7 -5.2
01:15 1009 29.8 839 24.78 -10.5 13 43 -20.8 -5.4
01:20 1009 29.8 838 24.75 -10.3 13.4 42 -21.1 -5.9
01:25 1009 29.8 838 24.75 -10.2 13.6 43 -20.7 -5.2
01:30 1009 29.8 838 24.75 -10.2 13.6 42 -20.9 -5.6
01:35 1009 29.8 838 24.75 -10 13.9 40 -21.1 -6.1
01:40 1009 29.8 838 24.75 -9.9 14.2 40 -21 -5.8
01:45 1008 29.77 838 24.75 -9.9 14.2 40 -21.2 -6.2
01:50 1008 29.77 838 24.75 -9.9 14.3 39 -21.3 -6.3
01:55 1008 29.77 838 24.75 -10 14.1 40 -21.2 -6.2
02:00 1008 29.77 837 24.72 -10 14 40 -21.1 -5.9
02:05 1008 29.77 837 24.72 -10 13.9 42 -20.7 -5.3
02:10 1008 29.77 837 24.72 -10 14 41 -20.9 -5.6
02:15 1008 29.77 837 24.72 -10.1 13.9 42 -20.7 -5.3
02:20 1008 29.77 837 24.72 -9.9 14.2 44 -19.9 -3.8
02:25 1008 29.77 837 24.72 -9.8 14.3 43 -20.1 -4.2
02:30 1008 29.77 837 24.72 -9.9 14.2 44 -19.9 -3.9
02:35 1008 29.77 837 24.72 -10.2 13.7 45 -20 -4.1
02:40 1008 29.77 838 24.75 -10.3 13.5 48 -19.3 -2.8
02:45 1008 29.77 837 24.72 -10.3 13.4 48 -19.4 -2.9
02:50 1008 29.77 837 24.72 -9.9 14.1 48 -19 -2.3
02:55 1008 29.77 837 24.72 -10.2 13.7 50 -18.6 -1.5
03:00 1008 29.77 837 24.72 -10.3 13.4 51 -18.7 -1.7
03:05 1008 29.77 837 24.72 -10.3 13.5 49 -19 -2.3
03:10 1007 29.74 837 24.72 -9.8 14.4 45 -19.6 -3.3
03:15 1007 29.74 836 24.69 -9.7 14.6 43 -20 -4.1
03:20 1007 29.74 836 24.69 -9.3 15.2 41 -20.2 -4.4
03:25 1007 29.74 836 24.69 -9.2 15.5 43 -19.5 -3.2
03:30 1007 29.74 836 24.69 -9.4 15.1 46 -19 -2.1
03:35 1007 29.74 836 24.69 -9.6 14.8 44 -19.7 -3.4
03:40 1007 29.74 836 24.69 -9.5 14.9 44 -19.5 -3.2
03:45 1006 29.71 836 24.69 -9.5 15 43 -19.9 -3.9
03:50 1006 29.71 836 24.69 -9.2 15.5 42 -19.9 -3.8
03:55 1006 29.71 835 24.66 -9 15.8 42 -19.7 -3.4
04:00 1006 29.71 835 24.66 -8.9 16 44 -19.2 -2.5
04:05 1006 29.71 835 24.66 -9 15.9 43 -19.5 -3
04:10 1006 29.71 835 24.66 -8.6 16.5 39 -20.2 -4.4
04:15 1006 29.71 835 24.66 -7.8 18 36 -20.3 -4.5
04:20 1006 29.71 835 24.66 -7.2 19.1 37 -19.5 -3.1
04:25 1005 29.68 835 24.66 -7.6 18.3 38 -19.7 -3.4
04:30 1005 29.68 834 24.63 -7.6 18.4 37 -19.9 -3.9
04:35 1005 29.68 834 24.63 -7.3 18.9 36 -19.8 -3.7
04:40 1005 29.68 834 24.63 -6.7 19.9 37 -19.2 -2.5
04:45 1005 29.68 834 24.63 -7 19.3 37 -19.4 -3
04:50 1005 29.68 834 24.63 -7 19.3 36 -19.8 -3.6
04:55 1005 29.68 834 24.63 -7 19.4 37 -19.6 -3.2
05:00 1005 29.68 834 24.63 -6.7 20 38 -18.8 -1.8
05:05 1005 29.68 834 24.63 -5.8 21.6 39 -17.7 0.2
05:10 1005 29.68 834 24.63 -5.2 22.7 40 -17 1.5
05:15 1005 29.68 834 24.63 -5.1 22.9 38 -17.4 0.7
05:20 1005 29.68 834 24.63 -5.8 21.6 43 -16.6 2.2
05:25 1004 29.65 834 24.63 -5.5 22 46 -15.4 4.3
05:30 1004 29.65 834 24.63 -4.9 23.1 45 -15.1 4.7
05:35 1004 29.65 834 24.63 -5 23 44 -15.4 4.2
05:40 1004 29.65 834 24.63 -4.9 23.2 43 -15.7 3.8
05:45 1004 29.65 834 24.63 -4.8 23.3 42 -15.9 3.3
05:50 1004 29.65 833 24.6 -5.1 22.8 41 -16.5 2.2
05:55 1004 29.65 833 24.6 -5.6 21.9 42 -16.5 2.3
06:00 1004 29.65 833 24.6 -5.9 21.5 44 -16.3 2.7
06:05 1004 29.65 833 24.6 -6.1 21.1 46 -15.9 3.3
06:10 1004 29.65 833 24.6 -6 21.3 47 -15.6 3.9
06:15 1003 29.62 833 24.6 -6 21.2 48 -15.3 4.5
06:20 1003 29.62 833 24.6 -5.9 21.3 49 -14.9 5.2
06:25 1003 29.62 833 24.6 -5.8 21.7 49 -14.8 5.4
06:30 1003 29.62 832 24.57 -5.5 22.2 49 -14.6 5.8
06:35 1003 29.62 832 24.57 -5.5 22.1 50 -14.3 6.3
06:40 1003 29.62 833 24.6 -5.5 22.1 51 -14 6.8
06:45 1003 29.62 833 24.6 -5.5 22.1 51 -14.1 6.6
06:50 1003 29.62 833 24.6 -5.2 22.7 50 -14 6.8
06:55 1003 29.62 833 24.6 -4.8 23.3 49 -14 6.8
07:00 1003 29.62 833 24.6 -4.5 23.8 50 -13.5 7.7
07:05 1003 29.62 832 24.57 -4.5 23.9 49 -13.8 7.2
07:10 1003 29.62 832 24.57 -4.4 24 49 -13.6 7.6
07:15 1003 29.62 832 24.57 -4.5 23.9 50 -13.5 7.8
07:20 1003 29.62 832 24.57 -4.6 23.8 50 -13.4 7.9
07:25 1003 29.62 832 24.57 -4.7 23.5 50 -13.7 7.4
07:30 1003 29.62 833 24.6 -4.8 23.3 53 -13 8.6
07:35 1003 29.62 833 24.6 -5.4 22.4 55 -13.1 8.4
07:40 1003 29.62 833 24.6 -6.1 21.1 57 -13.3 8.1
07:45 1003 29.62 833 24.6 -6.1 21 57 -13.3 8.1
07:50 1003 29.62 833 24.6 -5.9 21.4 55 -13.6 7.6
07:55 1003 29.62 833 24.6 -5.5 22.1 55 -13.2 8.2
08:00 1003 29.62 833 24.6 -5.2 22.6 55 -12.8 8.9
08:05 1003 29.62 833 24.6 -5.1 22.8 54 -13 8.6
08:10 1003 29.62 833 24.6 -4.8 23.3 54 -12.8 8.9
08:15 1003 29.62 833 24.6 -4.9 23.1 56 -12.4 9.6
08:20 1003 29.62 833 24.6 -5.2 22.7 57 -12.3 9.8
08:25 1003 29.62 833 24.6 -5.7 21.7 59 -12.5 9.5
08:30 1003 29.62 833 24.6 -6.1 21.1 58 -13 8.6
08:35 1003 29.62 832 24.57 -6 21.1 58 -13 8.7
08:40 1003 29.62 832 24.57 -6 21.3 57 -13.3 8.1
08:45 1003 29.62 832 24.57 -5.7 21.7 56 -13.1 8.5
08:50 1003 29.62 832 24.57 -5.5 22.1 59 -12.3 9.9
08:55 1003 29.62 832 24.57 -5.6 22 58 -12.7 9.2
09:00 1003 29.62 832 24.57 -5.4 22.3 57 -12.7 9.1
09:05 1003 29.62 832 24.57 -4.9 23.2 54 -12.9 8.7
09:10 1003 29.62 832 24.57 -4.4 24.1 52 -12.9 8.8
09:15 1003 29.62 832 24.57 -4.1 24.7 50 -13.1 8.4
09:20 1003 29.62 832 24.57 -3.9 25.1 49 -13 8.6
09:25 1003 29.62 832 24.57 -3.7 25.4 50 -12.7 9.1
09:30 1003 29.62 832 24.57 -3.9 25 51 -12.5 9.5
09:35 1003 29.62 832 24.57 -3.9 24.9 50 -12.9 8.8
09:40 1003 29.62 832 24.57 -3.9 25 48 -13.3 8.1
09:45 1003 29.62 832 24.57 -3.7 25.3 48 -13.2 8.2
09:50 1003 29.62 832 24.57 -3.5 25.7 47 -13.2 8.2
09:55 1003 29.62 832 24.57 -3.4 26 48 -13 8.6
10:00 1003 29.62 832 24.57 -3.4 26 48 -13 8.6
10:05 1003 29.62 832 24.57 -3.3 26 47 -13.1 8.4
10:10 1003 29.62 832 24.57 -3.5 25.8 47 -13.2 8.3
10:15 1003 29.62 832 24.57 -3.7 25.4 48 -13.3 8.1
10:20 1003 29.62 832 24.57 -3.6 25.4 49 -12.9 8.8
10:25 1003 29.62 832 24.57 -3.4 25.9 49 -12.7 9.2
10:30 1003 29.62 832 24.57 -3.2 26.2 49 -12.4 9.6
10:35 1003 29.62 832 24.57 -3.2 26.2 51 -12.1 10.3
10:40 1003 29.62 833 24.6 -3 26.6 48 -12.5 9.4
10:45 1003 29.62 832 24.57 -2.5 27.5 46 -12.5 9.5
10:50 1003 29.62 832 24.57 -2.4 27.7 46 -12.4 9.6
10:55 1003 29.62 832 24.57 -2.2 28 46 -12.4 9.7
11:00 1003 29.62 832 24.57 -2.1 28.2 46 -12.2 10.1
11:05 1003 29.62 832 24.57 -2.1 28.3 46 -12.2 10
11:10 1003 29.62 832 24.57 -1.9 28.6 45 -12.2 10.1
11:15 1003 29.62 832 24.57 -1.8 28.7 46 -11.9 10.5
11:20 1003 29.62 832 24.57 -2.4 27.6 48 -11.9 10.6
11:25 1003 29.62 833 24.6 -2.7 27.1 49 -12.1 10.3
11:30 1003 29.62 833 24.6 -2.8 26.9 49 -12.2 10.1
11:35 1003 29.62 832 24.57 -2.8 26.9 48 -12.5 9.5
11:40 1003 29.62 832 24.57 -2.7 27.2 49 -12.1 10.2
11:45 1003 29.62 833 24.6 -2.2 28 49 -11.7 11
11:50 1003 29.62 833 24.6 -2.2 28 49 -11.5 11.2
11:55 1003 29.62 833 24.6 -2.1 28.3 49 -11.5 11.4
12:00 1003 29.62 832 24.57 -2 28.5 48 -11.6 11.1
12:05 1003 29.62 832 24.57 -2.1 28.3 48 -11.6 11.2
12:10 1003 29.62 832 24.57 -2.1 28.2 49 -11.6 11.2
12:15 1003 29.62 832 24.57 -2 28.4 49 -11.5 11.4
12:20 1003 29.62 832 24.57 -1.9 28.6 49 -11.3 11.7
12:25 1003 29.62 832 24.57 -1.8 28.7 49 -11.2 11.8
12:30 1003 29.62 833 24.6 -1.7 28.9 47 -11.7 11
12:35 1003 29.62 833 24.6 -1.7 28.9 46 -11.8 10.8
12:40 1003 29.62 833 24.6 -1.7 28.9 45 -12.3 9.9
12:45 1003 29.62 833 24.6 -1.9 28.5 47 -11.7 10.9
12:50 1003 29.62 833 24.6 -1.9 28.6 47 -11.9 10.6
12:55 1003 29.62 833 24.6 -1.9 28.5 47 -11.9 10.6
13:00 1004 29.65 833 24.6 -1.9 28.7 48 -11.4 11.5
13:05 1004 29.65 833 24.6 -1.9 28.6 50 -10.9 12.3
13:10 1003 29.62 833 24.6 -2.2 28.1 51 -11 12.1
13:15 1003 29.62 833 24.6 -1.9 28.5 49 -11.2 11.8
13:20 1003 29.62 833 24.6 -1.7 28.9 49 -10.9 12.3
13:25 1003 29.62 833 24.6 -1.7 28.9 48 -11.3 11.7
13:30 1003 29.62 833 24.6 -1.8 28.7 49 -11.2 11.8
13:35 1003 29.62 833 24.6 -1.9 28.5 48 -11.6 11.2
13:40 1003 29.62 833 24.6 -2.1 28.2 48 -11.6 11.1
13:45 1003 29.62 833 24.6 -2.2 28.1 49 -11.5 11.4
13:50 1003 29.62 833 24.6 -2.2 28 48 -11.7 10.9
13:55 1003 29.62 833 24.6 -2.3 27.9 49 -11.5 11.2
14:00 1004 29.65 833 24.6 -2.3 27.9 50 -11.5 11.4
14:05 1004 29.65 833 24.6 -2.2 28 48 -11.7 10.9
14:10 1004 29.65 833 24.6 -2.3 27.8 49 -11.6 11.1
14:15 1004 29.65 833 24.6 -2.3 27.9 49 -11.6 11.2
14:20 1004 29.65 833 24.6 -2.3 27.8 50 -11.4 11.5
14:25 1004 29.65 833 24.6 -2.3 27.9 51 -11.2 11.9
14:30 1004 29.65 833 24.6 -2.2 28 53 -10.5 13
14:35 1004 29.65 833 24.6 -2.1 28.3 54 -10.3 13.5
14:40 1004 29.65 833 24.6 -2 28.4 54 -10.2 13.6
14:45 1004 29.65 833 24.6 -2.1 28.3 53 -10.4 13.2
14:50 1004 29.65 833 24.6 -2.2 28.1 52 -10.7 12.7
14:55 1004 29.65 833 24.6 -2.2 28 53 -10.7 12.8
15:00 1004 29.65 833 24.6 -2.3 27.8 52 -10.8 12.5
15:05 1004 29.65 833 24.6 -2.5 27.6 53 -10.7 12.7
15:10 1004 29.65 833 24.6 -2.6 27.4 54 -10.6 12.9
15:15 1004 29.65 833 24.6 -2.6 27.3 54 -10.7 12.7
15:20 1004 29.65 833 24.6 -2.7 27.2 54 -10.7 12.7
15:25 1004 29.65 833 24.6 -2.8 27 56 -10.5 13.2
15:30 1004 29.65 833 24.6 -2.9 26.8 57 -10.2 13.6
15:35 1004 29.65 833 24.6 -2.9 26.7 57 -10.3 13.5
15:40 1004 29.65 833 24.6 -3 26.6 58 -10.2 13.7
15:45 1004 29.65 833 24.6 -3 26.5 59 -10 13.9
15:50 1004 29.65 833 24.6 -3.1 26.4 58 -10.2 13.6
15:55 1004 29.65 833 24.6 -3.2 26.3 59 -10.1 13.8
16:00 1004 29.65 833 24.6 -3.3 26.1 59 -10.2 13.7
16:05 1004 29.65 833 24.6 -3.3 26.1 59 -10.2 13.7
16:10 1004 29.65 833 24.6 -3.2 26.2 59 -10.2 13.6
16:15 1004 29.65 833 24.6 -3.1 26.4 58 -10.3 13.5
16:20 1004 29.65 833 24.6 -3 26.5 57 -10.3 13.4
16:25 1004 29.65 833 24.6 -2.9 26.8 56 -10.6 13
16:30 1004 29.65 833 24.6 -2.7 27.1 56 -10.3 13.4
16:35 1004 29.65 833 24.6 -2.7 27.1 55 -10.5 13
16:40 1004 29.65 833 24.6 -2.7 27.1 55 -10.6 12.9
16:45 1004 29.65 833 24.6 -2.5 27.4 55 -10.4 13.3
16:50 1004 29.65 833 24.6 -2.5 27.5 55 -10.4 13.2
16:55 1004 29.65 834 24.63 -2.6 27.4 55 -10.3 13.4
17:00 1004 29.65 834 24.63 -2.6 27.3 56 -10.3 13.4
17:05 1005 29.68 834 24.63 -2.7 27.1 57 -10.2 13.7
17:10 1005 29.68 834 24.63 -2.8 26.9 57 -10.3 13.5
17:15 1005 29.68 834 24.63 -2.8 26.9 56 -10.5 13.2
17:20 1005 29.68 834 24.63 -2.7 27.2 54 -10.8 12.5
17:25 1005 29.68 834 24.63 -2.5 27.4 54 -10.6 12.9
17:30 1005 29.68 834 24.63 -2.5 27.4 55 -10.5 13.1
17:35 1005 29.68 834 24.63 -2.5 27.5 54 -10.5 13
17:40 1005 29.68 834 24.63 -2.5 27.5 56 -10.2 13.7
17:45 1005 29.68 834 24.63 -2.6 27.4 56 -10.1 13.8
17:50 1005 29.68 834 24.63 -2.6 27.3 57 -10 13.9
17:55 1005 29.68 834 24.63 -2.7 27.1 58 -9.8 14.4
18:00 1005 29.68 834 24.63 -2.8 27 59 -9.8 14.4
18:05 1005 29.68 834 24.63 -2.7 27.1 58 -9.8 14.3
18:10 1005 29.68 834 24.63 -2.6 27.3 57 -9.9 14.1
18:15 1005 29.68 834 24.63 -2.6 27.4 57 -9.9 14.2
18:20 1005 29.68 834 24.63 -2.5 27.4 56 -10 13.9
18:25 1005 29.68 834 24.63 -2.4 27.6 56 -10 14
18:30 1005 29.68 834 24.63 -2.4 27.7 56 -9.9 14.2
18:35 1005 29.68 835 24.66 -2.3 27.9 56 -10 14
18:40 1005 29.68 835 24.66 -2.2 28.1 55 -10.1 13.8
18:45 1005 29.68 835 24.66 -2.2 28.1 55 -10.1 13.8
18:50 1006 29.71 835 24.66 -2.1 28.2 54 -10.3 13.5
18:55 1006 29.71 835 24.66 -1.9 28.6 53 -10.3 13.5
19:00 1005 29.68 835 24.66 -1.9 28.7 53 -10.3 13.5
19:05 1005 29.68 835 24.66 -1.9 28.6 53 -10.2 13.7
19:10 1006 29.71 835 24.66 -1.9 28.6 53 -10.3 13.4
19:15 1006 29.71 835 24.66 -2 28.5 53 -10.3 13.5
19:20 1006 29.71 835 24.66 -2 28.3 55 -9.9 14.2
19:25 1006 29.71 835 24.66 -2.2 28.1 56 -9.8 14.4
19:30 1006 29.71 835 24.66 -2.1 28.3 56 -9.8 14.4
19:35 1006 29.71 835 24.66 -2 28.4 56 -9.6 14.7
19:40 1006 29.71 835 24.66 -1.8 28.7 54 -10 14
19:45 1006 29.71 835 24.66 -1.5 29.3 53 -9.9 14.3
19:50 1006 29.71 835 24.66 -1.3 29.6 52 -9.8 14.3
19:55 1006 29.71 835 24.66 -1.3 29.7 53 -9.6 14.7
20:00 1006 29.71 835 24.66 -1.3 29.6 54 -9.5 14.8
20:05 1006 29.71 835 24.66 -1.3 29.6 54 -9.4 15
20:10 1006 29.71 835 24.66 -1.4 29.5 54 -9.6 14.7
20:15 1006 29.71 835 24.66 -1.5 29.3 55 -9.3 15.2
20:20 1006 29.71 835 24.66 -1.5 29.3 55 -9.4 15.2
20:25 1006 29.71 835 24.66 -1.7 29 55 -9.5 14.9
20:30 1006 29.71 836 24.69 -1.5 29.3 55 -9.4 15.1
20:35 1007 29.74 836 24.69 -1.5 29.3 55 -9.3 15.2
20:40 1007 29.74 836 24.69 -1.7 29 56 -9.4 15
20:45 1007 29.74 836 24.69 -1.8 28.8 56 -9.3 15.2
20:50 1007 29.74 836 24.69 -2 28.4 57 -9.4 15.1
20:55 1007 29.74 836 24.69 -2.1 28.3 57 -9.4 15
21:00 1007 29.74 836 24.69 -2.1 28.3 57 -9.4 15
21:05 1007 29.74 836 24.69 -2.1 28.3 58 -9.3 15.3
21:10 1007 29.74 836 24.69 -2 28.3 59 -8.9 15.9
21:15 1007 29.74 836 24.69 -2.1 28.2 60 -8.8 16.2
21:20 1007 29.74 836 24.69 -2.2 28.1 59 -9.2 15.5
21:25 1007 29.74 836 24.69 -1.7 29 57 -9.2 15.5
21:30 1007 29.74 836 24.69 -1.4 29.5 55 -9.3 15.3
21:35 1007 29.74 836 24.69 -1.5 29.3 56 -9.2 15.4
21:40 1007 29.74 836 24.69 -1.5 29.3 55 -9.4 15.1
21:45 1007 29.74 836 24.69 -1.3 29.6 55 -9.2 15.4
21:50 1007 29.74 836 24.69 -1.2 29.9 55 -9 15.8
21:55 1007 29.74 836 24.69 -1.1 30.1 54 -9.2 15.5
22:00 1007 29.74 836 24.69 -0.9 30.4 54 -9 15.8
22:05 1007 29.74 836 24.69 -0.9 30.5 54 -9 15.8
22:10 1007 29.74 836 24.69 -0.9 30.4 54 -9.1 15.5
22:15 1007 29.74 836 24.69 -0.8 30.6 54 -9 15.7
22:20 1007 29.74 836 24.69 -0.8 30.5 54 -9.1 15.6
22:25 1007 29.74 836 24.69 -0.8 30.6 53 -9.2 15.4
22:30 1006 29.71 836 24.69 -0.7 30.7 52 -9.5 14.9
22:35 1006 29.71 836 24.69 -0.8 30.6 53 -9.2 15.5
22:40 1006 29.71 836 24.69 -0.9 30.4 54 -9.1 15.6
22:45 1007 29.74 836 24.69 -0.8 30.5 53 -9.2 15.4
22:50 1007 29.74 836 24.69 -0.8 30.6 53 -9.2 15.4
22:55 1007 29.74 836 24.69 -0.9 30.4 54 -9.1 15.6
23:00 1007 29.74 836 24.69 -1.1 30.1 55 -9 15.8
23:05 1007 29.74 836 24.69 -1.1 30 54 -9.2 15.4
23:10 1007 29.74 836 24.69 -1 30.3 54 -9.2 15.4
23:15 1007 29.74 836 24.69 -0.9 30.5 53 -9.2 15.4
23:20 1007 29.74 836 24.69 -0.8 30.5 54 -9.1 15.7
23:25 1007 29.74 837 24.72 -1 30.3 54 -9 15.8
23:30 1007 29.74 837 24.72 -1.1 30 55 -9 15.8
23:35 1007 29.74 837 24.72 -1.2 29.8 54 -9.3 15.2
23:40 1007 29.74 837 24.72 -1.2 29.8 54 -9.4 15.2
23:45 1007 29.74 837 24.72 -1.2 29.8 55 -9.3 15.3
23:50 1007 29.74 837 24.72 -1.3 29.6 55 -9.2 15.5
23:55 1007 29.74 837 24.72 -1.2 29.8 55 -9.2 15.5
24:00 1007 29.74 837 24.72 -1.1 30 56 -8.8 16.1